Time;durP1;ratioP1;P1;durP2;ratioP2;P2;SDS_P1;SDS_P2;PMS_P1;PMS_P2;Temp;Humidity;BMP_temperature;BMP_pressure;BME280_temperature;BME280_humidity;BME280_pressure;Samples;Min_cycle;Max_cycle;Signal;HPM_P1;HPM_P2
2021/01/14 07:31:27;;;;;;;;;;;;;;;-0.69;83.66;98948.33;1721371;81;20170;-43
2021/01/14 07:33:54;;;;;;;;;;;;;;;-0.64;83.19;98951.84;1751308;82;20181;-43
2021/01/14 07:36:25;;;;;;;;;;;;;;;-0.64;82.98;98948.89;1751476;82;20150;-43
2021/01/14 07:38:53;;;;;;;;;;;;;;;-0.59;82.92;98954.98;1751672;82;20154;-43
2021/01/14 07:41:21;;;;;;;;;;;;;;;-0.51;82.78;98958.16;1747966;82;20162;-43
2021/01/14 07:43:49;;;;;;;;;;;;;;;-0.41;82.37;98963.94;1742775;82;20134;-43
2021/01/14 07:46:22;;;;;;;;;;;;;;;-0.37;81.91;98959.33;1742902;81;20182;-43
2021/01/14 07:48:51;;;;;;;;;;;;;;;-0.34;81.41;98964.55;1742374;82;20185;-43
2021/01/14 07:51:19;;;;;;;;;;;;;;;-0.30;81.17;98971.05;1736097;82;20138;-43
2021/01/14 07:54:06;;;;;;;;;;;;;;;-0.26;80.70;98974.57;1728383;82;20122;-43
2021/01/14 07:56:52;;;;;;;;;;;;;;;-0.22;80.53;98971.24;1731241;82;20178;-42
2021/01/14 07:59:28;;;;;;;;;;;;;;;-0.15;80.20;98976.96;1743679;82;20186;-42
2021/01/14 08:02:08;;;;;;;;;;;;;;;-0.07;79.99;98984.41;1753989;82;20750;-44
2021/01/14 08:04:48;;;;;;;;;;;;;;;0.02;79.64;98982.89;1753371;82;20170;-46
2021/01/14 08:07:24;;;;;;;;;;;;;;;0.09;79.13;98983.45;1753700;81;20261;-47
2021/01/14 08:09:52;;;;;;;;;;;;;;;0.12;79.08;98987.39;1748829;82;20161;-47
2021/01/14 08:12:20;;;;;;;;;;;;;;;0.17;78.79;98990.91;1745824;82;20281;-48
2021/01/14 08:14:48;;;;;;;;;;;;;;;0.20;78.42;98990.56;1748944;81;20199;-48
2021/01/14 08:17:26;;;;;;;;;;;;;;;0.22;78.27;98990.16;1740566;81;20181;-48
2021/01/14 08:19:54;;;;;;;;;;;;;;;0.23;77.64;98990.64;1743578;82;20448;-46
2021/01/14 08:22:22;;;;;;;;;;;;;;;0.18;77.11;99002.95;1749046;82;20281;-43
2021/01/14 08:24:56;;;;;;;;;;;;;;;0.15;77.22;98996.44;1719706;82;20280;-46
2021/01/14 08:27:32;;;;;;;;;;;;;;;0.16;76.98;99000.33;1749447;82;20165;-42
2021/01/14 08:30:03;;;;;;;;;;;;;;;0.15;76.37;98999.88;1742934;82;20166;-43
2021/01/14 08:32:52;;;;;;;;;;;;;;;0.11;75.87;98995.92;1749192;81;20193;-43
2021/01/14 08:35:31;;;;;;;;;;;;;;;0.04;75.50;99003.92;1749082;82;20189;-42
2021/01/14 08:38:01;;;;;;;;;;;;;;;-0.08;75.64;99001.09;1748687;81;20142;-42
2021/01/14 08:40:33;;;;;;;;;;;;;;;-0.14;75.73;99015.10;1737961;82;20153;-46
2021/01/14 08:43:16;;;;;;;;;;;;;;;-0.22;75.65;99003.37;1750959;82;20257;-46
2021/01/14 08:45:48;;;;;;;;;;;;;;;-0.30;75.74;98998.04;1731042;82;20280;-47
2021/01/14 08:48:22;;;;;;;;;;;;;;;-0.33;76.13;99011.26;1744037;82;20182;-46
2021/01/14 08:51:00;;;;;;;;;;;;;;;-0.32;76.14;99005.28;1753355;82;20174;-46
2021/01/14 08:53:33;;;;;;;;;;;;;;;-0.33;76.34;99004.41;1753315;81;20134;-46
2021/01/14 08:56:08;;;;;;;;;;;;;;;-0.34;75.99;99003.10;1750527;81;20457;-46
2021/01/14 08:58:42;;;;;;;;;;;;;;;-0.35;76.00;98999.67;1750167;82;20143;-46
2021/01/14 09:01:20;;;;;;;;;;;;;;;-0.33;76.21;99007.41;1747139;81;20184;-46
2021/01/14 09:03:48;;;;;;;;;;;;;;;-0.28;76.41;98996.39;1751820;81;20147;-46
2021/01/14 09:06:16;;;;;;;;;;;;;;;-0.20;75.91;98999.55;1753414;81;20149;-47
2021/01/14 09:08:49;;;;;;;;;;;;;;;-0.17;75.41;99005.64;1754070;81;20174;-46
2021/01/14 09:11:19;;;;;;;;;;;;;;;-0.20;75.33;99001.70;1754841;81;20439;-46
2021/01/14 09:13:46;;;;;;;;;;;;;;;-0.19;75.76;98984.14;1718595;81;20439;-47
2021/01/14 09:16:14;;;;;;;;;;;;;;;-0.13;75.33;98984.70;1756537;81;20476;-42
2021/01/14 09:18:43;;;;;;;;;;;;;;;-0.07;75.10;98984.83;1749430;81;20318;-42
2021/01/14 09:21:13;;;;;;;;;;;;;;;-0.02;74.83;98981.94;1753143;81;20172;-45
2021/01/14 09:23:41;;;;;;;;;;;;;;;-0.01;74.44;98983.25;1760878;81;20158;-47
2021/01/14 09:26:22;;;;;;;;;;;;;;;0.02;74.56;98984.17;1753454;81;20170;-46
2021/01/14 09:28:51;;;;;;;;;;;;;;;0.08;74.27;98982.59;1753314;81;20165;-46
2021/01/14 09:31:19;;;;;;;;;;;;;;;0.11;73.73;98983.06;1756273;81;20168;-42
2021/01/14 09:33:48;;;;;;;;;;;;;;;0.13;73.77;98985.27;1755925;81;20182;-43
2021/01/14 09:36:17;;;;;;;;;;;;;;;0.14;73.37;98986.58;1745266;79;20331;-42
2021/01/14 09:38:51;;;;;;;;;;;;;;;0.10;73.60;98983.91;1748882;81;20142;-42
2021/01/14 09:41:38;;;;;;;;;;;;;;;0.10;73.73;98985.19;1742377;82;20414;-42
2021/01/14 09:44:10;;;;;;;;;;;;;;;0.14;73.70;98990.44;1742556;81;20166;-46
2021/01/14 09:46:41;;;;;;;;;;;;;;;0.18;73.48;98984.53;1744733;81;20166;-46
2021/01/14 09:49:12;;;;;;;;;;;;;;;0.22;73.19;98986.30;1747169;81;20438;-46
2021/01/14 09:51:40;;;;;;;;;;;;;;;0.18;73.19;98987.09;1765617;80;20229;-41
2021/01/14 09:54:07;;;;;;;;;;;;;;;0.17;73.55;98990.91;1729843;82;20542;-46
2021/01/14 09:56:41;;;;;;;;;;;;;;;0.21;73.61;98988.84;1732429;81;20164;-46
2021/01/14 09:59:20;;;;;;;;;;;;;;;0.19;72.99;98985.39;1718781;83;20170;-43
2021/01/14 10:01:56;;;;;;;;;;;;;;;0.10;72.93;98982.62;1729683;82;20186;-42
2021/01/14 10:04:25;;;;;;;;;;;;;;;0.03;73.11;98991.05;1718789;82;20172;-42
2021/01/14 10:06:55;;;;;;;;;;;;;;;-0.06;73.28;98983.60;1718542;82;20511;-46
2021/01/14 10:09:23;;;;;;;;;;;;;;;-0.08;73.52;98989.10;1723576;82;20190;-46
2021/01/14 10:11:51;;;;;;;;;;;;;;;-0.13;72.99;98975.70;1711499;82;20181;-47
2021/01/14 10:14:19;;;;;;;;;;;;;;;-0.24;73.20;98975.88;1697622;82;20155;-46
2021/01/14 10:16:47;;;;;;;;;;;;;;;-0.29;73.35;98970.24;1725464;82;20200;-42
2021/01/14 10:19:16;;;;;;;;;;;;;;;-0.26;73.73;98972.00;1721339;82;20187;-47
2021/01/14 10:21:43;;;;;;;;;;;;;;;-0.22;73.52;98971.66;1733925;81;20202;-43
2021/01/14 10:24:27;;;;;;;;;;;;;;;-0.19;73.52;98971.30;1721137;82;20168;-47
2021/01/14 10:26:55;;;;;;;;;;;;;;;-0.17;73.71;98969.64;1754511;81;20160;-43
2021/01/14 10:29:38;;;;;;;;;;;;;;;-0.15;73.47;98973.10;1757111;80;20255;-43
2021/01/14 10:32:03;;;;;;;;;;;;;;;-0.14;74.01;98975.25;1726233;82;20187;-47
2021/01/14 10:34:45;;;;;;;;;;;;;;;-0.08;73.73;98971.11;1715389;82;20214;-46
2021/01/14 10:37:35;;;;;;;;;;;;;;;-0.02;73.61;98968.66;1719213;82;20180;-47
2021/01/14 10:40:03;;;;;;;;;;;;;;;0.05;73.59;98968.79;1713866;82;20200;-46
2021/01/14 10:42:38;;;;;;;;;;;;;;;0.15;73.54;98963.00;1731817;82;20195;-42
2021/01/14 10:45:11;;;;;;;;;;;;;;;0.25;72.90;98962.36;1736632;82;20169;-47
2021/01/14 10:47:39;;;;;;;;;;;;;;;0.34;72.78;98954.80;1728899;82;20176;-47
2021/01/14 10:50:25;;;;;;;;;;;;;;;0.47;72.31;98952.94;1735560;82;20168;-46
2021/01/14 10:52:54;;;;;;;;;;;;;;;0.60;71.65;98948.02;1733666;82;20494;-44
2021/01/14 10:55:21;;;;;;;;;;;;;;;0.69;70.92;98948.16;1736295;82;20540;-47
